createdAt,value
2024-05-09T00:07:19.077Z,0
2024-05-09T00:17:19.672Z,0
2024-05-09T00:27:19.751Z,0
2024-05-09T00:37:20.521Z,0
2024-05-09T00:47:21.532Z,0
2024-05-09T00:57:22.295Z,0
2024-05-09T01:07:22.429Z,0
2024-05-09T01:27:23.657Z,0
2024-05-09T01:37:24.029Z,0
2024-05-09T01:57:25.760Z,0
2024-05-09T02:07:26.578Z,0
2024-05-09T02:17:26.981Z,0
2024-05-09T02:27:27.657Z,0
2024-05-09T02:37:28.114Z,0
2024-05-09T02:47:29.201Z,0
2024-05-09T02:57:29.781Z,0
2024-05-09T03:07:30.688Z,0
2024-05-09T03:17:31.911Z,0
2024-05-09T03:27:32.519Z,0
2024-05-09T03:37:33.354Z,0
2024-05-09T03:47:33.571Z,0
2024-05-09T03:57:34.039Z,0
2024-05-09T04:07:34.565Z,0
2024-05-09T04:17:34.986Z,0
2024-05-09T04:27:35.514Z,0
2024-05-09T04:37:36.190Z,0
2024-05-09T04:47:36.718Z,0
2024-05-09T05:07:38.229Z,0
2024-05-09T05:17:38.621Z,0
2024-05-09T05:27:38.819Z,0
2024-05-09T05:47:40.826Z,0
2024-05-09T06:07:41.649Z,0
2024-05-09T06:27:42.827Z,0
2024-05-09T06:37:43.349Z,0
2024-05-09T06:47:43.676Z,0
2024-05-09T06:57:43.926Z,0
2024-05-09T07:07:45.012Z,1
2024-05-09T07:17:46.131Z,19
2024-05-09T07:27:47.030Z,21
2024-05-09T07:37:47.899Z,49
2024-05-09T07:57:49.338Z,63
2024-05-09T08:07:49.826Z,66
2024-05-09T08:17:50.494Z,70
2024-05-09T08:27:51.108Z,70
2024-05-09T08:37:51.720Z,75
2024-05-09T08:47:52.113Z,92
2024-05-09T08:57:53.176Z,98
2024-05-09T09:07:54.035Z,96
2024-05-09T09:17:54.609Z,97
2024-05-09T09:27:55.539Z,92
2024-05-09T09:37:56.301Z,90
2024-05-09T09:47:56.986Z,96
2024-05-09T09:57:57.744Z,87
2024-05-09T10:07:58.350Z,85
2024-05-09T10:28:00.241Z,78
2024-05-09T10:48:01.431Z,79
2024-05-09T10:58:02.262Z,89
2024-05-09T12:48:09.671Z,74
2024-05-09T13:08:11.036Z,71
2024-05-09T13:28:12.261Z,73
2024-05-09T13:48:13.233Z,75
2024-05-09T14:08:14.541Z,70
2024-05-09T14:28:15.892Z,70
2024-05-09T14:38:16.433Z,66
2024-05-09T14:48:16.624Z,68
2024-05-09T15:08:18.606Z,68
2024-05-09T15:28:20.152Z,71
2024-05-09T15:48:21.529Z,72
2024-05-09T16:08:23.071Z,73
2024-05-09T16:28:25.587Z,75
2024-05-09T16:48:25.500Z,76
2024-05-09T17:08:26.586Z,77
2024-05-09T17:28:28.221Z,77
2024-05-09T17:38:28.607Z,78
2024-05-09T17:48:29.375Z,77
2024-05-09T18:08:29.876Z,77
2024-05-09T18:18:30.227Z,79
2024-05-09T18:28:30.703Z,82
2024-05-09T18:48:31.959Z,95
2024-05-09T19:08:33.054Z,100
2024-05-09T19:28:34.653Z,88
2024-05-09T19:38:35.235Z,82
2024-05-09T19:48:36.316Z,73
2024-05-09T19:58:36.348Z,60
2024-05-09T20:08:37.057Z,53
2024-05-09T20:18:37.325Z,48
2024-05-09T20:28:38.289Z,47
2024-05-09T20:38:39.133Z,43
2024-05-09T20:48:40.016Z,35
2024-05-09T20:58:40.278Z,35
2024-05-09T21:08:40.640Z,33
2024-05-09T21:18:41.465Z,25
2024-05-09T21:28:42.480Z,21
2024-05-09T21:29:04.371Z,21
2024-05-09T21:38:48.434Z,22
2024-05-09T21:48:48.984Z,18
2024-05-09T21:58:50.027Z,13
2024-05-09T22:08:50.888Z,1
2024-05-09T22:18:51.126Z,0
2024-05-09T22:28:51.237Z,0
2024-05-09T22:38:51.687Z,0
2024-05-09T22:48:51.920Z,0
2024-05-09T22:58:52.956Z,0
2024-05-09T23:08:53.895Z,0
2024-05-09T23:18:54.080Z,0
2024-05-09T23:28:54.990Z,0
2024-05-09T23:38:55.699Z,0
2024-05-09T23:48:56.328Z,0
2024-05-09T23:58:57.082Z,0
